sensor_id;sensor_type;location;lat;lon;timestamp;temperature;humidity
19168;DHT22;9716;53.114;18.040;2022-08-26T00:00:50;22.20;99.90
19168;DHT22;9716;53.114;18.040;2022-08-26T00:03:20;22.20;99.90
19168;DHT22;9716;53.114;18.040;2022-08-26T00:05:49;22.20;99.90
19168;DHT22;9716;53.114;18.040;2022-08-26T00:08:20;22.20;99.90
19168;DHT22;9716;53.114;18.040;2022-08-26T00:10:49;22.10;99.90
19168;DHT22;9716;53.114;18.040;2022-08-26T00:13:18;22.10;99.90
19168;DHT22;9716;53.114;18.040;2022-08-26T00:15:47;22.10;99.90
19168;DHT22;9716;53.114;18.040;2022-08-26T00:18:17;22.10;99.90
19168;DHT22;9716;53.114;18.040;2022-08-26T00:20:49;22.10;99.90
19168;DHT22;9716;53.114;18.040;2022-08-26T00:23:18;22.10;99.90
19168;DHT22;9716;53.114;18.040;2022-08-26T00:25:52;22.10;99.90
19168;DHT22;9716;53.114;18.040;2022-08-26T00:28:23;22.20;99.90
19168;DHT22;9716;53.114;18.040;2022-08-26T00:30:52;22.10;99.90
19168;DHT22;9716;53.114;18.040;2022-08-26T00:33:21;22.10;99.90
19168;DHT22;9716;53.114;18.040;2022-08-26T00:35:50;22.10;99.90
19168;DHT22;9716;53.114;18.040;2022-08-26T00:38:19;22.10;99.90
19168;DHT22;9716;53.114;18.040;2022-08-26T00:40:52;22.10;99.90
19168;DHT22;9716;53.114;18.040;2022-08-26T00:43:22;22.10;99.90
19168;DHT22;9716;53.114;18.040;2022-08-26T00:45:55;22.10;99.90
19168;DHT22;9716;53.114;18.040;2022-08-26T00:48:29;22.10;99.90
19168;DHT22;9716;53.114;18.040;2022-08-26T00:51:04;22.10;99.90
19168;DHT22;9716;53.114;18.040;2022-08-26T00:53:38;22.10;99.90
19168;DHT22;9716;53.114;18.040;2022-08-26T00:56:13;22.10;99.90
19168;DHT22;9716;53.114;18.040;2022-08-26T00:58:44;22.10;99.90
19168;DHT22;9716;53.114;18.040;2022-08-26T01:01:14;22.10;99.90
19168;DHT22;9716;53.114;18.040;2022-08-26T01:03:44;22.10;99.90
19168;DHT22;9716;53.114;18.040;2022-08-26T01:06:13;22.10;99.90
19168;DHT22;9716;53.114;18.040;2022-08-26T01:08:43;22.10;99.90
19168;DHT22;9716;53.114;18.040;2022-08-26T01:11:13;22.10;99.90
19168;DHT22;9716;53.114;18.040;2022-08-26T01:13:42;22.10;99.90
19168;DHT22;9716;53.114;18.040;2022-08-26T01:16:14;22.00;99.90
19168;DHT22;9716;53.114;18.040;2022-08-26T01:18:43;22.00;99.90
19168;DHT22;9716;53.114;18.040;2022-08-26T01:21:17;22.10;99.90
19168;DHT22;9716;53.114;18.040;2022-08-26T01:23:51;22.10;99.90
19168;DHT22;9716;53.114;18.040;2022-08-26T01:26:25;22.00;99.90
19168;DHT22;9716;53.114;18.040;2022-08-26T01:28:57;22.00;99.90
19168;DHT22;9716;53.114;18.040;2022-08-26T01:31:34;22.00;99.90
19168;DHT22;9716;53.114;18.040;2022-08-26T01:34:09;22.00;99.90
19168;DHT22;9716;53.114;18.040;2022-08-26T01:36:39;22.00;99.90
19168;DHT22;9716;53.114;18.040;2022-08-26T01:39:15;22.00;99.90
19168;DHT22;9716;53.114;18.040;2022-08-26T01:41:44;22.00;99.90
19168;DHT22;9716;53.114;18.040;2022-08-26T01:44:22;22.00;99.90
19168;DHT22;9716;53.114;18.040;2022-08-26T01:46:53;22.00;99.90
19168;DHT22;9716;53.114;18.040;2022-08-26T01:49:25;21.90;99.90
19168;DHT22;9716;53.114;18.040;2022-08-26T01:51:58;21.90;99.90
19168;DHT22;9716;53.114;18.040;2022-08-26T01:54:31;21.90;99.90
19168;DHT22;9716;53.114;18.040;2022-08-26T01:57:00;21.90;99.90
19168;DHT22;9716;53.114;18.040;2022-08-26T01:59:30;21.90;99.90
19168;DHT22;9716;53.114;18.040;2022-08-26T02:01:58;21.90;99.90
19168;DHT22;9716;53.114;18.040;2022-08-26T02:04:31;21.90;99.90
19168;DHT22;9716;53.114;18.040;2022-08-26T02:07:02;21.90;99.90
19168;DHT22;9716;53.114;18.040;2022-08-26T02:09:36;21.90;99.90
19168;DHT22;9716;53.114;18.040;2022-08-26T02:12:08;21.90;99.90
19168;DHT22;9716;53.114;18.040;2022-08-26T02:14:40;21.90;99.90
19168;DHT22;9716;53.114;18.040;2022-08-26T02:17:11;21.80;99.90
19168;DHT22;9716;53.114;18.040;2022-08-26T02:19:41;21.80;99.90
19168;DHT22;9716;53.114;18.040;2022-08-26T02:22:15;21.90;99.90
19168;DHT22;9716;53.114;18.040;2022-08-26T02:24:49;21.90;99.90
19168;DHT22;9716;53.114;18.040;2022-08-26T02:27:22;21.90;99.90
19168;DHT22;9716;53.114;18.040;2022-08-26T02:29:56;21.90;99.90
19168;DHT22;9716;53.114;18.040;2022-08-26T02:32:27;21.90;99.90
19168;DHT22;9716;53.114;18.040;2022-08-26T02:34:56;21.90;99.90
19168;DHT22;9716;53.114;18.040;2022-08-26T02:37:27;21.80;99.90
19168;DHT22;9716;53.114;18.040;2022-08-26T02:39:58;21.90;99.90
19168;DHT22;9716;53.114;18.040;2022-08-26T02:42:27;21.80;99.90
19168;DHT22;9716;53.114;18.040;2022-08-26T02:44:56;21.80;99.90
19168;DHT22;9716;53.114;18.040;2022-08-26T02:47:26;21.90;99.90
19168;DHT22;9716;53.114;18.040;2022-08-26T02:49:58;21.90;99.90
19168;DHT22;9716;53.114;18.040;2022-08-26T02:52:27;21.80;99.90
19168;DHT22;9716;53.114;18.040;2022-08-26T02:54:57;21.90;99.90
19168;DHT22;9716;53.114;18.040;2022-08-26T02:57:26;21.90;99.90
19168;DHT22;9716;53.114;18.040;2022-08-26T02:59:54;21.90;99.90
19168;DHT22;9716;53.114;18.040;2022-08-26T03:02:26;21.90;99.90
19168;DHT22;9716;53.114;18.040;2022-08-26T03:04:55;21.90;99.90
19168;DHT22;9716;53.114;18.040;2022-08-26T03:07:28;21.90;99.90
19168;DHT22;9716;53.114;18.040;2022-08-26T03:09:59;21.90;99.90
19168;DHT22;9716;53.114;18.040;2022-08-26T03:12:43;21.80;99.90
19168;DHT22;9716;53.114;18.040;2022-08-26T03:15:15;21.80;99.90
19168;DHT22;9716;53.114;18.040;2022-08-26T03:17:45;21.80;99.90
19168;DHT22;9716;53.114;18.040;2022-08-26T03:20:14;21.80;99.90
19168;DHT22;9716;53.114;18.040;2022-08-26T03:22:44;21.80;99.90
19168;DHT22;9716;53.114;18.040;2022-08-26T03:25:15;21.70;99.90
19168;DHT22;9716;53.114;18.040;2022-08-26T03:27:44;21.80;99.90
19168;DHT22;9716;53.114;18.040;2022-08-26T03:30:14;21.70;99.90
19168;DHT22;9716;53.114;18.040;2022-08-26T03:33:00;21.70;99.90
19168;DHT22;9716;53.114;18.040;2022-08-26T03:35:30;21.70;99.90
19168;DHT22;9716;53.114;18.040;2022-08-26T03:38:00;21.70;99.90
19168;DHT22;9716;53.114;18.040;2022-08-26T03:40:31;21.70;99.90
19168;DHT22;9716;53.114;18.040;2022-08-26T03:43:01;21.70;99.90
19168;DHT22;9716;53.114;18.040;2022-08-26T03:45:30;21.70;99.90
19168;DHT22;9716;53.114;18.040;2022-08-26T03:47:59;21.70;99.90
19168;DHT22;9716;53.114;18.040;2022-08-26T03:50:28;21.70;99.90
19168;DHT22;9716;53.114;18.040;2022-08-26T03:53:00;21.70;99.90
19168;DHT22;9716;53.114;18.040;2022-08-26T03:55:31;21.70;99.90
19168;DHT22;9716;53.114;18.040;2022-08-26T03:58:00;21.70;99.90
19168;DHT22;9716;53.114;18.040;2022-08-26T04:00:28;21.70;99.90
19168;DHT22;9716;53.114;18.040;2022-08-26T04:03:00;21.70;99.90
19168;DHT22;9716;53.114;18.040;2022-08-26T04:05:29;21.70;99.90
19168;DHT22;9716;53.114;18.040;2022-08-26T04:07:57;21.70;99.90
19168;DHT22;9716;53.114;18.040;2022-08-26T04:10:26;21.70;99.90
19168;DHT22;9716;53.114;18.040;2022-08-26T04:12:57;21.70;99.90
19168;DHT22;9716;53.114;18.040;2022-08-26T04:15:26;21.70;99.90
19168;DHT22;9716;53.114;18.040;2022-08-26T04:17:55;21.70;99.90
19168;DHT22;9716;53.114;18.040;2022-08-26T04:20:25;21.70;99.90
19168;DHT22;9716;53.114;18.040;2022-08-26T04:22:54;21.70;99.90
19168;DHT22;9716;53.114;18.040;2022-08-26T04:25:23;21.70;99.90
19168;DHT22;9716;53.114;18.040;2022-08-26T04:27:52;21.70;99.90
19168;DHT22;9716;53.114;18.040;2022-08-26T04:30:22;21.70;99.90
19168;DHT22;9716;53.114;18.040;2022-08-26T04:32:51;21.70;99.90
19168;DHT22;9716;53.114;18.040;2022-08-26T04:35:20;21.70;99.90
19168;DHT22;9716;53.114;18.040;2022-08-26T04:37:52;21.70;99.90
19168;DHT22;9716;53.114;18.040;2022-08-26T04:40:22;21.70;99.90
19168;DHT22;9716;53.114;18.040;2022-08-26T04:42:53;21.80;99.90
19168;DHT22;9716;53.114;18.040;2022-08-26T04:45:23;21.80;99.90
19168;DHT22;9716;53.114;18.040;2022-08-26T04:47:53;21.80;99.90
19168;DHT22;9716;53.114;18.040;2022-08-26T04:50:23;21.90;99.90
19168;DHT22;9716;53.114;18.040;2022-08-26T04:52:53;21.90;99.90
19168;DHT22;9716;53.114;18.040;2022-08-26T04:55:22;21.90;99.90
19168;DHT22;9716;53.114;18.040;2022-08-26T04:58:05;22.00;99.90
19168;DHT22;9716;53.114;18.040;2022-08-26T05:00:38;22.00;99.90
19168;DHT22;9716;53.114;18.040;2022-08-26T05:03:06;22.00;99.90
19168;DHT22;9716;53.114;18.040;2022-08-26T05:05:38;22.10;99.90
19168;DHT22;9716;53.114;18.040;2022-08-26T05:08:08;22.10;99.90
19168;DHT22;9716;53.114;18.040;2022-08-26T05:10:41;22.10;99.90
19168;DHT22;9716;53.114;18.040;2022-08-26T05:13:11;22.10;99.90
19168;DHT22;9716;53.114;18.040;2022-08-26T05:15:43;22.20;99.90
19168;DHT22;9716;53.114;18.040;2022-08-26T05:18:14;22.30;99.90
19168;DHT22;9716;53.114;18.040;2022-08-26T05:20:46;22.30;99.90
19168;DHT22;9716;53.114;18.040;2022-08-26T05:23:16;22.40;99.90
19168;DHT22;9716;53.114;18.040;2022-08-26T05:25:47;22.50;99.90
19168;DHT22;9716;53.114;18.040;2022-08-26T05:28:17;22.60;99.90
19168;DHT22;9716;53.114;18.040;2022-08-26T05:30:50;22.70;99.90
19168;DHT22;9716;53.114;18.040;2022-08-26T05:33:18;22.90;99.90
19168;DHT22;9716;53.114;18.040;2022-08-26T05:35:48;23.00;99.90
19168;DHT22;9716;53.114;18.040;2022-08-26T05:38:20;23.10;99.90
19168;DHT22;9716;53.114;18.040;2022-08-26T05:40:50;23.20;99.90
19168;DHT22;9716;53.114;18.040;2022-08-26T05:43:19;23.40;99.90
19168;DHT22;9716;53.114;18.040;2022-08-26T05:45:49;23.40;99.90
19168;DHT22;9716;53.114;18.040;2022-08-26T05:48:19;23.70;99.90
19168;DHT22;9716;53.114;18.040;2022-08-26T05:50:52;24.00;99.90
19168;DHT22;9716;53.114;18.040;2022-08-26T05:53:21;24.30;99.90
19168;DHT22;9716;53.114;18.040;2022-08-26T05:55:53;24.60;99.90
19168;DHT22;9716;53.114;18.040;2022-08-26T05:58:22;25.00;99.90
19168;DHT22;9716;53.114;18.040;2022-08-26T06:00:58;25.40;99.90
19168;DHT22;9716;53.114;18.040;2022-08-26T06:03:30;25.80;99.90
19168;DHT22;9716;53.114;18.040;2022-08-26T06:06:03;26.30;99.90
19168;DHT22;9716;53.114;18.040;2022-08-26T06:08:33;26.60;99.90
19168;DHT22;9716;53.114;18.040;2022-08-26T06:11:05;26.90;99.90
19168;DHT22;9716;53.114;18.040;2022-08-26T06:13:43;27.20;99.90
19168;DHT22;9716;53.114;18.040;2022-08-26T06:16:16;27.40;99.90
19168;DHT22;9716;53.114;18.040;2022-08-26T06:18:46;27.60;99.90
19168;DHT22;9716;53.114;18.040;2022-08-26T06:21:19;27.90;99.90
19168;DHT22;9716;53.114;18.040;2022-08-26T06:23:50;28.20;99.90
19168;DHT22;9716;53.114;18.040;2022-08-26T06:26:38;28.40;99.90
19168;DHT22;9716;53.114;18.040;2022-08-26T06:29:09;28.60;99.90
19168;DHT22;9716;53.114;18.040;2022-08-26T06:31:52;28.70;99.90
19168;DHT22;9716;53.114;18.040;2022-08-26T06:34:22;29.00;99.90
19168;DHT22;9716;53.114;18.040;2022-08-26T06:36:58;29.20;99.90
19168;DHT22;9716;53.114;18.040;2022-08-26T06:39:29;29.40;99.90
19168;DHT22;9716;53.114;18.040;2022-08-26T06:41:58;29.70;99.90
19168;DHT22;9716;53.114;18.040;2022-08-26T06:44:29;29.90;99.90
19168;DHT22;9716;53.114;18.040;2022-08-26T06:46:59;30.10;99.90
19168;DHT22;9716;53.114;18.040;2022-08-26T06:49:28;30.10;99.90
19168;DHT22;9716;53.114;18.040;2022-08-26T06:51:57;30.30;99.90
19168;DHT22;9716;53.114;18.040;2022-08-26T06:54:27;30.40;99.90
19168;DHT22;9716;53.114;18.040;2022-08-26T06:56:56;30.50;99.90
19168;DHT22;9716;53.114;18.040;2022-08-26T06:59:25;30.70;99.90
19168;DHT22;9716;53.114;18.040;2022-08-26T07:01:54;30.90;99.90
19168;DHT22;9716;53.114;18.040;2022-08-26T07:04:24;31.00;99.90
19168;DHT22;9716;53.114;18.040;2022-08-26T07:06:54;31.10;99.90
19168;DHT22;9716;53.114;18.040;2022-08-26T07:09:26;31.30;99.90
19168;DHT22;9716;53.114;18.040;2022-08-26T07:11:55;31.50;99.90
19168;DHT22;9716;53.114;18.040;2022-08-26T07:14:24;31.60;99.90
19168;DHT22;9716;53.114;18.040;2022-08-26T07:16:53;31.70;99.20
19168;DHT22;9716;53.114;18.040;2022-08-26T07:19:23;31.80;98.80
19168;DHT22;9716;53.114;18.040;2022-08-26T07:21:59;31.80;97.90
19168;DHT22;9716;53.114;18.040;2022-08-26T07:24:31;31.80;97.60
19168;DHT22;9716;53.114;18.040;2022-08-26T07:27:03;31.80;97.20
19168;DHT22;9716;53.114;18.040;2022-08-26T07:29:32;31.90;97.00
19168;DHT22;9716;53.114;18.040;2022-08-26T07:32:02;32.00;96.80
19168;DHT22;9716;53.114;18.040;2022-08-26T07:34:32;32.30;96.10
19168;DHT22;9716;53.114;18.040;2022-08-26T07:37:02;32.50;95.00
19168;DHT22;9716;53.114;18.040;2022-08-26T07:39:35;32.60;94.50
19168;DHT22;9716;53.114;18.040;2022-08-26T07:42:08;32.60;94.00
19168;DHT22;9716;53.114;18.040;2022-08-26T07:44:37;32.70;93.70
19168;DHT22;9716;53.114;18.040;2022-08-26T07:47:07;32.90;92.90
19168;DHT22;9716;53.114;18.040;2022-08-26T07:49:54;33.00;92.60
19168;DHT22;9716;53.114;18.040;2022-08-26T07:52:24;33.20;91.80
19168;DHT22;9716;53.114;18.040;2022-08-26T07:54:54;33.40;90.70
19168;DHT22;9716;53.114;18.040;2022-08-26T07:57:24;33.40;90.70
19168;DHT22;9716;53.114;18.040;2022-08-26T07:59:54;33.50;90.60
19168;DHT22;9716;53.114;18.040;2022-08-26T08:02:24;33.70;90.10
19168;DHT22;9716;53.114;18.040;2022-08-26T08:04:54;33.80;89.10
19168;DHT22;9716;53.114;18.040;2022-08-26T08:07:25;33.90;86.90
19168;DHT22;9716;53.114;18.040;2022-08-26T08:10:14;34.10;87.40
19168;DHT22;9716;53.114;18.040;2022-08-26T08:12:45;34.40;85.30
19168;DHT22;9716;53.114;18.040;2022-08-26T08:15:14;34.50;83.00
19168;DHT22;9716;53.114;18.040;2022-08-26T08:17:43;34.50;82.00
19168;DHT22;9716;53.114;18.040;2022-08-26T08:20:13;34.50;80.90
19168;DHT22;9716;53.114;18.040;2022-08-26T08:22:42;34.50;78.40
19168;DHT22;9716;53.114;18.040;2022-08-26T08:25:11;34.40;78.30
19168;DHT22;9716;53.114;18.040;2022-08-26T08:27:42;34.40;78.50
19168;DHT22;9716;53.114;18.040;2022-08-26T08:30:12;34.30;76.90
19168;DHT22;9716;53.114;18.040;2022-08-26T08:32:47;34.20;77.70
19168;DHT22;9716;53.114;18.040;2022-08-26T08:35:18;34.10;77.80
19168;DHT22;9716;53.114;18.040;2022-08-26T08:37:50;34.10;78.20
19168;DHT22;9716;53.114;18.040;2022-08-26T08:40:23;34.10;77.30
19168;DHT22;9716;53.114;18.040;2022-08-26T08:42:57;34.20;76.20
19168;DHT22;9716;53.114;18.040;2022-08-26T08:45:31;34.20;75.10
19168;DHT22;9716;53.114;18.040;2022-08-26T08:48:05;34.20;75.40
19168;DHT22;9716;53.114;18.040;2022-08-26T08:50:42;34.20;75.80
19168;DHT22;9716;53.114;18.040;2022-08-26T08:53:15;34.30;74.80
19168;DHT22;9716;53.114;18.040;2022-08-26T08:56:01;34.40;75.40
19168;DHT22;9716;53.114;18.040;2022-08-26T08:58:46;34.50;74.60
19168;DHT22;9716;53.114;18.040;2022-08-26T09:01:24;34.40;73.30
19168;DHT22;9716;53.114;18.040;2022-08-26T09:04:06;34.30;74.60
19168;DHT22;9716;53.114;18.040;2022-08-26T09:06:45;34.30;74.80
19168;DHT22;9716;53.114;18.040;2022-08-26T09:09:20;34.20;72.30
19168;DHT22;9716;53.114;18.040;2022-08-26T09:11:49;34.10;71.10
19168;DHT22;9716;53.114;18.040;2022-08-26T09:14:19;34.00;71.70
19168;DHT22;9716;53.114;18.040;2022-08-26T09:16:51;33.80;73.10
19168;DHT22;9716;53.114;18.040;2022-08-26T09:19:29;33.70;73.40
19168;DHT22;9716;53.114;18.040;2022-08-26T09:22:04;33.70;73.40
19168;DHT22;9716;53.114;18.040;2022-08-26T09:24:38;33.60;73.40
19168;DHT22;9716;53.114;18.040;2022-08-26T09:27:08;33.60;73.30
19168;DHT22;9716;53.114;18.040;2022-08-26T09:29:41;33.60;73.10
19168;DHT22;9716;53.114;18.040;2022-08-26T09:32:18;33.60;71.60
19168;DHT22;9716;53.114;18.040;2022-08-26T09:34:54;33.60;71.10
19168;DHT22;9716;53.114;18.040;2022-08-26T09:37:38;33.50;71.50
19168;DHT22;9716;53.114;18.040;2022-08-26T09:40:21;33.50;72.00
19168;DHT22;9716;53.114;18.040;2022-08-26T09:43:09;33.50;71.50
19168;DHT22;9716;53.114;18.040;2022-08-26T09:45:41;33.50;71.30
19168;DHT22;9716;53.114;18.040;2022-08-26T09:48:26;33.50;69.90
19168;DHT22;9716;53.114;18.040;2022-08-26T09:50:58;33.30;70.50
19168;DHT22;9716;53.114;18.040;2022-08-26T09:53:31;33.20;70.70
19168;DHT22;9716;53.114;18.040;2022-08-26T09:56:23;33.10;70.40
19168;DHT22;9716;53.114;18.040;2022-08-26T09:58:55;33.10;69.60
19168;DHT22;9716;53.114;18.040;2022-08-26T10:01:28;33.00;69.50
19168;DHT22;9716;53.114;18.040;2022-08-26T10:04:08;32.90;68.70
19168;DHT22;9716;53.114;18.040;2022-08-26T10:06:39;32.90;69.60
19168;DHT22;9716;53.114;18.040;2022-08-26T10:09:12;32.90;68.80
19168;DHT22;9716;53.114;18.040;2022-08-26T10:11:49;32.80;68.20
19168;DHT22;9716;53.114;18.040;2022-08-26T10:14:21;32.70;68.50
19168;DHT22;9716;53.114;18.040;2022-08-26T10:16:56;32.80;68.30
19168;DHT22;9716;53.114;18.040;2022-08-26T10:19:31;32.80;68.10
19168;DHT22;9716;53.114;18.040;2022-08-26T10:22:25;32.80;68.30
19168;DHT22;9716;53.114;18.040;2022-08-26T10:25:00;32.80;67.90
19168;DHT22;9716;53.114;18.040;2022-08-26T10:27:37;32.90;67.50
19168;DHT22;9716;53.114;18.040;2022-08-26T10:30:20;32.80;65.90
19168;DHT22;9716;53.114;18.040;2022-08-26T10:32:53;32.70;65.70
19168;DHT22;9716;53.114;18.040;2022-08-26T10:35:23;32.60;65.70
19168;DHT22;9716;53.114;18.040;2022-08-26T10:37:56;32.50;66.50
19168;DHT22;9716;53.114;18.040;2022-08-26T10:40:36;32.50;66.70
19168;DHT22;9716;53.114;18.040;2022-08-26T10:43:13;32.60;65.80
19168;DHT22;9716;53.114;18.040;2022-08-26T10:45:46;32.60;65.50
19168;DHT22;9716;53.114;18.040;2022-08-26T10:48:21;32.50;64.30
19168;DHT22;9716;53.114;18.040;2022-08-26T10:51:02;32.40;64.40
19168;DHT22;9716;53.114;18.040;2022-08-26T10:53:43;32.30;65.50
19168;DHT22;9716;53.114;18.040;2022-08-26T10:56:28;32.20;65.30
19168;DHT22;9716;53.114;18.040;2022-08-26T10:59:05;32.20;64.00
19168;DHT22;9716;53.114;18.040;2022-08-26T11:01:43;32.20;63.70
19168;DHT22;9716;53.114;18.040;2022-08-26T11:04:27;32.20;62.80
19168;DHT22;9716;53.114;18.040;2022-08-26T11:14:00;32.50;62.40
19168;DHT22;9716;53.114;18.040;2022-08-26T11:16:35;32.70;60.90
19168;DHT22;9716;53.114;18.040;2022-08-26T11:19:11;32.80;60.60
19168;DHT22;9716;53.114;18.040;2022-08-26T11:22:24;32.90;60.80
19168;DHT22;9716;53.114;18.040;2022-08-26T11:25:10;32.90;59.70
19168;DHT22;9716;53.114;18.040;2022-08-26T11:28:00;32.90;58.70
19168;DHT22;9716;53.114;18.040;2022-08-26T11:30:43;32.90;58.90
19168;DHT22;9716;53.114;18.040;2022-08-26T11:33:53;32.90;59.10
19168;DHT22;9716;53.114;18.040;2022-08-26T11:39:47;32.90;59.10
19168;DHT22;9716;53.114;18.040;2022-08-26T11:42:28;32.90;59.00
19168;DHT22;9716;53.114;18.040;2022-08-26T11:44:58;33.00;58.70
19168;DHT22;9716;53.114;18.040;2022-08-26T11:47:33;33.00;58.20
19168;DHT22;9716;53.114;18.040;2022-08-26T11:50:11;33.00;57.70
19168;DHT22;9716;53.114;18.040;2022-08-26T11:52:39;33.00;57.40
19168;DHT22;9716;53.114;18.040;2022-08-26T11:55:10;33.00;57.80
19168;DHT22;9716;53.114;18.040;2022-08-26T11:57:44;33.00;57.80
19168;DHT22;9716;53.114;18.040;2022-08-26T12:00:18;32.90;57.30
19168;DHT22;9716;53.114;18.040;2022-08-26T12:02:51;32.90;57.50
19168;DHT22;9716;53.114;18.040;2022-08-26T12:05:24;32.80;57.90
19168;DHT22;9716;53.114;18.040;2022-08-26T12:08:01;32.80;57.90
19168;DHT22;9716;53.114;18.040;2022-08-26T12:10:33;32.80;57.40
19168;DHT22;9716;53.114;18.040;2022-08-26T12:13:04;32.70;58.10
19168;DHT22;9716;53.114;18.040;2022-08-26T12:15:34;32.70;57.90
19168;DHT22;9716;53.114;18.040;2022-08-26T12:18:18;32.70;58.20
19168;DHT22;9716;53.114;18.040;2022-08-26T12:20:58;32.60;58.10
19168;DHT22;9716;53.114;18.040;2022-08-26T12:23:39;32.60;57.90
19168;DHT22;9716;53.114;18.040;2022-08-26T12:26:17;32.60;57.70
19168;DHT22;9716;53.114;18.040;2022-08-26T12:28:49;32.60;57.70
19168;DHT22;9716;53.114;18.040;2022-08-26T12:31:22;32.50;57.30
19168;DHT22;9716;53.114;18.040;2022-08-26T12:33:54;32.40;57.40
19168;DHT22;9716;53.114;18.040;2022-08-26T12:36:28;32.40;57.70
19168;DHT22;9716;53.114;18.040;2022-08-26T12:39:08;32.30;58.10
19168;DHT22;9716;53.114;18.040;2022-08-26T12:41:40;32.30;57.80
19168;DHT22;9716;53.114;18.040;2022-08-26T12:44:35;32.30;57.60
19168;DHT22;9716;53.114;18.040;2022-08-26T12:47:07;32.20;57.20
19168;DHT22;9716;53.114;18.040;2022-08-26T12:49:39;32.10;56.30
19168;DHT22;9716;53.114;18.040;2022-08-26T12:52:21;32.10;55.60
19168;DHT22;9716;53.114;18.040;2022-08-26T12:55:03;32.00;55.90
19168;DHT22;9716;53.114;18.040;2022-08-26T12:57:34;31.90;55.70
19168;DHT22;9716;53.114;18.040;2022-08-26T13:00:23;31.80;55.50
19168;DHT22;9716;53.114;18.040;2022-08-26T13:02:55;31.80;55.70
19168;DHT22;9716;53.114;18.040;2022-08-26T13:05:27;31.70;56.00
19168;DHT22;9716;53.114;18.040;2022-08-26T13:08:14;31.60;55.90
19168;DHT22;9716;53.114;18.040;2022-08-26T13:10:45;31.60;56.40
19168;DHT22;9716;53.114;18.040;2022-08-26T13:13:14;31.60;56.50
19168;DHT22;9716;53.114;18.040;2022-08-26T13:15:43;31.50;57.20
19168;DHT22;9716;53.114;18.040;2022-08-26T13:18:12;31.60;57.40
19168;DHT22;9716;53.114;18.040;2022-08-26T13:20:43;31.50;57.40
19168;DHT22;9716;53.114;18.040;2022-08-26T13:23:12;31.50;57.60
19168;DHT22;9716;53.114;18.040;2022-08-26T13:25:41;31.40;56.60
19168;DHT22;9716;53.114;18.040;2022-08-26T13:28:10;31.40;56.90
19168;DHT22;9716;53.114;18.040;2022-08-26T13:30:39;31.30;56.70
19168;DHT22;9716;53.114;18.040;2022-08-26T13:33:09;31.40;56.70
19168;DHT22;9716;53.114;18.040;2022-08-26T13:35:40;31.30;56.50
19168;DHT22;9716;53.114;18.040;2022-08-26T13:38:10;31.30;56.30
19168;DHT22;9716;53.114;18.040;2022-08-26T13:41:00;31.20;56.00
19168;DHT22;9716;53.114;18.040;2022-08-26T13:43:30;31.20;56.40
19168;DHT22;9716;53.114;18.040;2022-08-26T13:45:59;31.20;56.30
19168;DHT22;9716;53.114;18.040;2022-08-26T13:48:29;31.20;56.10
19168;DHT22;9716;53.114;18.040;2022-08-26T13:50:58;31.20;56.30
19168;DHT22;9716;53.114;18.040;2022-08-26T13:53:36;31.20;56.50
19168;DHT22;9716;53.114;18.040;2022-08-26T13:56:07;31.20;56.80
19168;DHT22;9716;53.114;18.040;2022-08-26T13:58:37;31.10;56.80
19168;DHT22;9716;53.114;18.040;2022-08-26T14:01:06;31.10;56.90
19168;DHT22;9716;53.114;18.040;2022-08-26T14:03:36;31.10;57.00
19168;DHT22;9716;53.114;18.040;2022-08-26T14:06:06;31.00;57.30
19168;DHT22;9716;53.114;18.040;2022-08-26T14:08:37;31.10;57.40
19168;DHT22;9716;53.114;18.040;2022-08-26T14:11:06;31.00;57.80
19168;DHT22;9716;53.114;18.040;2022-08-26T14:13:35;31.00;57.70
19168;DHT22;9716;53.114;18.040;2022-08-26T14:16:09;31.00;57.60
19168;DHT22;9716;53.114;18.040;2022-08-26T14:18:40;31.00;57.40
19168;DHT22;9716;53.114;18.040;2022-08-26T14:21:16;31.00;57.60
19168;DHT22;9716;53.114;18.040;2022-08-26T14:23:46;31.00;57.80
19168;DHT22;9716;53.114;18.040;2022-08-26T14:26:15;30.90;57.80
19168;DHT22;9716;53.114;18.040;2022-08-26T14:28:57;30.90;58.00
19168;DHT22;9716;53.114;18.040;2022-08-26T14:31:26;30.80;58.90
19168;DHT22;9716;53.114;18.040;2022-08-26T14:33:57;30.80;58.10
19168;DHT22;9716;53.114;18.040;2022-08-26T14:36:27;30.80;57.90
19168;DHT22;9716;53.114;18.040;2022-08-26T14:38:59;30.80;57.80
19168;DHT22;9716;53.114;18.040;2022-08-26T14:41:29;30.80;58.00
19168;DHT22;9716;53.114;18.040;2022-08-26T14:44:01;30.70;58.30
19168;DHT22;9716;53.114;18.040;2022-08-26T14:46:34;30.70;58.60
19168;DHT22;9716;53.114;18.040;2022-08-26T14:49:04;30.70;58.90
19168;DHT22;9716;53.114;18.040;2022-08-26T14:51:37;30.70;58.70
19168;DHT22;9716;53.114;18.040;2022-08-26T14:54:09;30.70;58.50
19168;DHT22;9716;53.114;18.040;2022-08-26T14:56:43;30.70;58.90
19168;DHT22;9716;53.114;18.040;2022-08-26T14:59:15;30.60;58.60
19168;DHT22;9716;53.114;18.040;2022-08-26T15:01:45;30.60;58.60
19168;DHT22;9716;53.114;18.040;2022-08-26T15:04:14;30.70;58.60
19168;DHT22;9716;53.114;18.040;2022-08-26T15:06:43;30.50;58.40
19168;DHT22;9716;53.114;18.040;2022-08-26T15:09:14;30.50;58.90
19168;DHT22;9716;53.114;18.040;2022-08-26T15:11:43;30.50;59.10
19168;DHT22;9716;53.114;18.040;2022-08-26T15:14:14;30.50;59.30
19168;DHT22;9716;53.114;18.040;2022-08-26T15:16:46;30.40;59.50
19168;DHT22;9716;53.114;18.040;2022-08-26T15:19:16;30.40;59.50
19168;DHT22;9716;53.114;18.040;2022-08-26T15:21:44;30.30;59.40
19168;DHT22;9716;53.114;18.040;2022-08-26T15:24:17;30.30;59.20
19168;DHT22;9716;53.114;18.040;2022-08-26T15:26:47;30.30;59.60
19168;DHT22;9716;53.114;18.040;2022-08-26T15:29:16;30.30;59.90
19168;DHT22;9716;53.114;18.040;2022-08-26T15:31:46;30.20;60.10
19168;DHT22;9716;53.114;18.040;2022-08-26T15:34:15;30.20;59.80
19168;DHT22;9716;53.114;18.040;2022-08-26T15:36:46;30.20;59.70
19168;DHT22;9716;53.114;18.040;2022-08-26T15:39:16;30.20;59.60
19168;DHT22;9716;53.114;18.040;2022-08-26T15:41:46;30.20;59.40
19168;DHT22;9716;53.114;18.040;2022-08-26T15:44:14;30.10;59.40
19168;DHT22;9716;53.114;18.040;2022-08-26T15:46:44;30.10;59.40
19168;DHT22;9716;53.114;18.040;2022-08-26T15:49:14;30.10;59.60
19168;DHT22;9716;53.114;18.040;2022-08-26T15:51:45;30.00;60.00
19168;DHT22;9716;53.114;18.040;2022-08-26T15:54:21;30.00;60.20
19168;DHT22;9716;53.114;18.040;2022-08-26T15:56:50;30.00;60.60
19168;DHT22;9716;53.114;18.040;2022-08-26T15:59:20;29.90;61.00
19168;DHT22;9716;53.114;18.040;2022-08-26T16:01:50;29.80;61.40
19168;DHT22;9716;53.114;18.040;2022-08-26T16:04:19;29.80;61.60
19168;DHT22;9716;53.114;18.040;2022-08-26T16:06:49;29.80;61.60
19168;DHT22;9716;53.114;18.040;2022-08-26T16:09:21;29.70;61.30
19168;DHT22;9716;53.114;18.040;2022-08-26T16:11:57;29.70;61.40
19168;DHT22;9716;53.114;18.040;2022-08-26T16:14:26;29.60;61.50